createdAt,value
2022-09-28T00:02:19.640Z,86.05
2022-09-28T00:04:50.745Z,85.94
2022-09-28T00:07:20.150Z,86.02
2022-09-28T00:09:51.024Z,85.99
2022-09-28T00:12:22.518Z,86.07
2022-09-28T00:14:54.097Z,85.97
2022-09-28T00:17:26.583Z,86.03
2022-09-28T00:19:59.180Z,85.95
2022-09-28T00:22:31.081Z,85.86
2022-09-28T00:25:02.117Z,85.82
2022-09-28T00:27:33.029Z,85.93
2022-09-28T00:30:04.035Z,85.98
2022-09-28T00:32:35.078Z,85.83
2022-09-28T00:35:06.690Z,85.77
2022-09-28T00:37:37.687Z,85.74
2022-09-28T00:40:10.161Z,85.64
2022-09-28T00:42:42.912Z,85.73
2022-09-28T00:45:14.229Z,85.73
2022-09-28T00:47:51.968Z,85.78
2022-09-28T00:50:30.202Z,85.90
2022-09-28T00:53:05.510Z,85.95
2022-09-28T00:55:41.755Z,86.08
2022-09-28T00:58:19.851Z,86.14
2022-09-28T01:00:51.125Z,86.18
2022-09-28T01:03:22.212Z,86.28
2022-09-28T01:05:54.609Z,86.26
2022-09-28T01:08:28.421Z,86.28
2022-09-28T01:11:00.793Z,86.46
2022-09-28T01:13:33.838Z,86.41
2022-09-28T01:16:14.103Z,86.31
2022-09-28T01:18:50.403Z,86.43
2022-09-28T01:21:23.499Z,86.26
2022-09-28T01:24:15.911Z,86.25
2022-09-28T01:27:11.107Z,86.18
2022-09-28T01:29:48.406Z,86.05
2022-09-28T01:32:33.690Z,86.04
2022-09-28T01:35:09.307Z,86.01
2022-09-28T01:37:47.401Z,86.10
2022-09-28T01:40:20.138Z,85.93
2022-09-28T01:42:58.619Z,85.75
2022-09-28T01:45:34.405Z,85.68
2022-09-28T01:48:09.956Z,85.59
2022-09-28T01:50:44.577Z,85.68
2022-09-28T01:53:22.324Z,85.64
2022-09-28T01:55:56.817Z,85.48
2022-09-28T01:58:33.729Z,85.61
2022-09-28T02:01:05.342Z,85.55
2022-09-28T02:03:42.385Z,85.48
2022-09-28T02:06:17.813Z,85.55
2022-09-28T02:08:54.994Z,85.55
2022-09-28T02:11:26.246Z,85.47
2022-09-28T02:14:01.124Z,85.47
2022-09-28T02:16:36.921Z,85.53
2022-09-28T02:19:09.481Z,85.47
2022-09-28T02:21:45.159Z,85.45
2022-09-28T02:24:22.950Z,85.18
2022-09-28T02:26:57.018Z,85.16
2022-09-28T02:29:28.265Z,85.01
2022-09-28T02:31:59.368Z,85.07
2022-09-28T02:34:30.660Z,85.17
2022-09-28T02:37:02.152Z,85.21
2022-09-28T02:39:32.963Z,85.13
2022-09-28T02:42:14.123Z,85.11
2022-09-28T02:45:01.331Z,85.25
2022-09-28T02:47:47.804Z,85.14
2022-09-28T02:50:31.323Z,85.24
2022-09-28T02:53:22.531Z,85.20
2022-09-28T02:56:09.635Z,85.27
2022-09-28T02:58:49.772Z,85.26
2022-09-28T03:01:30.237Z,85.15
2022-09-28T03:04:12.437Z,85.23
2022-09-28T03:06:49.033Z,85.12
2022-09-28T03:09:25.730Z,85.15
2022-09-28T03:12:01.032Z,85.12
2022-09-28T03:14:31.996Z,85.08
2022-09-28T03:17:02.899Z,85.01
2022-09-28T03:19:36.783Z,85.00
2022-09-28T03:22:08.111Z,84.85
2022-09-28T03:24:39.500Z,85.01
2022-09-28T03:27:10.811Z,84.99
2022-09-28T03:29:41.709Z,84.96
2022-09-28T03:32:12.753Z,84.95
2022-09-28T03:34:43.775Z,84.99
2022-09-28T03:37:13.137Z,84.89
2022-09-28T03:39:43.981Z,84.86
2022-09-28T03:42:13.303Z,84.83
2022-09-28T03:44:44.138Z,84.86
2022-09-28T03:47:16.043Z,84.71
2022-09-28T03:49:47.063Z,84.65
2022-09-28T03:52:18.048Z,84.54
2022-09-28T03:54:49.451Z,84.56
2022-09-28T03:57:20.415Z,84.50
2022-09-28T03:59:49.809Z,84.35
2022-09-28T04:02:20.558Z,84.39
2022-09-28T04:04:51.405Z,84.36
2022-09-28T04:07:22.213Z,84.32
2022-09-28T04:09:53.208Z,84.23
2022-09-28T04:12:24.034Z,84.30
2022-09-28T04:14:54.123Z,84.30
2022-09-28T04:17:25.147Z,84.31
2022-09-28T04:19:56.490Z,84.11
2022-09-28T04:22:27.245Z,84.06
2022-09-28T04:24:56.635Z,84.16
2022-09-28T04:27:45.189Z,84.30
2022-09-28T04:30:16.463Z,84.27
2022-09-28T04:32:48.812Z,84.30
2022-09-28T04:35:20.110Z,84.27
2022-09-28T04:37:49.356Z,84.20
2022-09-28T04:40:20.333Z,84.21
2022-09-28T04:42:57.321Z,84.38
2022-09-28T04:45:28.653Z,84.39
2022-09-28T04:47:59.607Z,84.62
2022-09-28T04:50:29.052Z,84.62
2022-09-28T04:53:01.296Z,84.72
2022-09-28T04:55:32.788Z,84.74
2022-09-28T04:58:06.436Z,84.71
2022-09-28T05:00:37.249Z,84.74
2022-09-28T05:03:08.091Z,84.53
2022-09-28T05:05:44.423Z,84.47
2022-09-28T05:08:15.523Z,84.48
2022-09-28T05:10:46.685Z,84.29
2022-09-28T05:13:18.882Z,84.28
2022-09-28T05:15:57.477Z,84.18
2022-09-28T05:18:29.743Z,84.06
2022-09-28T05:21:01.460Z,83.86
2022-09-28T05:23:34.313Z,84.08
2022-09-28T05:26:05.652Z,83.94
2022-09-28T05:28:36.528Z,83.83
2022-09-28T05:31:07.852Z,83.84
2022-09-28T05:33:39.114Z,83.72
2022-09-28T05:36:11.916Z,83.50
2022-09-28T05:38:42.736Z,83.27
2022-09-28T05:41:12.255Z,83.44
2022-09-28T05:43:44.273Z,83.90
2022-09-28T05:46:15.762Z,83.96
2022-09-28T05:48:46.932Z,83.44
2022-09-28T05:51:18.039Z,83.32
2022-09-28T05:53:48.979Z,83.43
2022-09-28T05:56:19.639Z,83.49
2022-09-28T05:58:50.639Z,83.39
2022-09-28T06:01:21.941Z,83.10
2022-09-28T06:03:52.727Z,82.98
2022-09-28T06:06:23.528Z,82.98
2022-09-28T06:08:54.534Z,82.97
2022-09-28T06:11:26.061Z,82.86
2022-09-28T06:13:57.398Z,82.58
2022-09-28T06:16:28.369Z,82.59
2022-09-28T06:18:57.767Z,81.95
2022-09-28T06:21:28.988Z,81.83
2022-09-28T06:24:00.100Z,82.05
2022-09-28T06:26:31.153Z,82.00
2022-09-28T06:29:04.338Z,81.98
2022-09-28T06:31:35.426Z,81.99
2022-09-28T06:34:06.292Z,81.88
2022-09-28T06:36:35.663Z,81.55
2022-09-28T06:39:06.951Z,81.39
2022-09-28T06:41:37.881Z,81.75
2022-09-28T06:44:08.840Z,81.53
2022-09-28T06:46:40.279Z,81.55
2022-09-28T06:49:14.149Z,81.76
2022-09-28T06:51:48.890Z,81.36
2022-09-28T06:54:19.692Z,81.66
2022-09-28T06:56:50.770Z,81.55
2022-09-28T06:59:21.911Z,81.07
2022-09-28T07:01:52.744Z,80.88
2022-09-28T07:04:23.565Z,80.97
2022-09-28T07:06:53.807Z,80.89
2022-09-28T07:09:32.403Z,81.03
2022-09-28T07:12:05.338Z,81.00
2022-09-28T07:14:47.302Z,80.74
2022-09-28T07:17:18.865Z,80.81
2022-09-28T07:19:52.796Z,80.15
2022-09-28T07:22:36.675Z,79.70
2022-09-28T07:25:12.824Z,79.10
2022-09-28T07:27:43.619Z,79.43
2022-09-28T07:30:13.899Z,79.52
2022-09-28T07:32:46.175Z,79.56
2022-09-28T07:35:17.304Z,79.17
2022-09-28T07:37:48.102Z,78.86
2022-09-28T07:40:36.601Z,78.87
2022-09-28T07:43:10.392Z,78.07
2022-09-28T07:45:41.579Z,78.15
2022-09-28T07:50:51.851Z,77.90
2022-09-28T07:53:25.026Z,78.03
2022-09-28T07:55:57.143Z,77.76
2022-09-28T07:58:28.305Z,77.63
2022-09-28T08:01:01.307Z,77.48
2022-09-28T08:03:32.691Z,77.32
2022-09-28T08:06:05.472Z,77.33
2022-09-28T08:08:37.954Z,77.08
2022-09-28T08:11:10.698Z,76.64
2022-09-28T08:13:42.260Z,76.75
2022-09-28T08:16:13.390Z,76.44
2022-09-28T08:18:44.673Z,76.38
2022-09-28T08:21:31.557Z,76.27
2022-09-28T08:24:02.600Z,76.59
2022-09-28T08:26:33.820Z,76.76
2022-09-28T08:29:04.799Z,76.48
2022-09-28T08:31:36.127Z,76.55
2022-09-28T08:34:07.444Z,76.89
2022-09-28T08:36:39.587Z,76.88
2022-09-28T08:39:10.589Z,75.46
2022-09-28T08:41:50.644Z,75.39
2022-09-28T08:44:24.856Z,74.68
2022-09-28T08:47:02.148Z,74.83
2022-09-28T08:49:36.602Z,74.15
2022-09-28T08:52:13.364Z,74.24
2022-09-28T08:54:51.753Z,74.13
2022-09-28T08:57:28.793Z,74.24
2022-09-28T09:00:02.222Z,74.77
2022-09-28T09:02:36.441Z,75.41
2022-09-28T09:05:14.855Z,76.15
2022-09-28T09:07:59.217Z,76.01
2022-09-28T09:10:49.256Z,76.64
2022-09-28T09:13:44.288Z,77.20
2022-09-28T09:16:25.378Z,77.64
2022-09-28T09:19:05.563Z,77.66
2022-09-28T09:21:42.791Z,77.29
2022-09-28T09:24:21.934Z,77.47
2022-09-28T09:27:03.909Z,77.39
2022-09-28T09:29:51.264Z,77.63
2022-09-28T09:32:40.433Z,78.03
2022-09-28T09:35:28.852Z,78.39
2022-09-28T09:38:16.856Z,78.57
2022-09-28T09:41:02.201Z,79.33
2022-09-28T09:43:55.905Z,79.97
2022-09-28T09:46:36.869Z,80.30
2022-09-28T09:49:16.928Z,79.66
2022-09-28T09:51:53.868Z,80.21
2022-09-28T09:54:31.373Z,80.68
2022-09-28T09:57:08.437Z,80.59
2022-09-28T09:59:39.129Z,80.63
2022-09-28T10:02:24.512Z,80.47
2022-09-28T10:04:58.944Z,80.11
2022-09-28T10:07:42.592Z,79.91
2022-09-28T10:10:21.625Z,80.08
2022-09-28T10:12:54.136Z,80.00
2022-09-28T10:15:28.231Z,80.10
2022-09-28T10:18:03.300Z,80.08
2022-09-28T10:20:38.556Z,80.39
2022-09-28T10:23:17.501Z,80.45
2022-09-28T10:25:50.535Z,80.78
2022-09-28T10:28:29.515Z,81.07
2022-09-28T10:31:00.480Z,81.17
2022-09-28T10:33:34.681Z,81.58
2022-09-28T10:36:11.298Z,82.17
2022-09-28T10:38:48.750Z,82.14
2022-09-28T10:41:19.658Z,82.33
2022-09-28T10:44:06.441Z,82.23
2022-09-28T10:46:39.667Z,82.62
2022-09-28T10:49:17.669Z,82.60
2022-09-28T10:51:51.752Z,82.33
2022-09-28T10:54:24.467Z,82.13
2022-09-28T10:56:57.039Z,82.26
2022-09-28T10:59:42.502Z,82.28
2022-09-28T11:02:24.315Z,82.44
2022-09-28T11:04:57.981Z,82.79
2022-09-28T11:07:32.034Z,83.20
2022-09-28T11:10:04.206Z,83.46
2022-09-28T11:12:39.825Z,83.63
2022-09-28T11:15:21.462Z,83.27
2022-09-28T11:17:53.396Z,83.46
2022-09-28T11:20:35.652Z,83.43
2022-09-28T11:23:21.972Z,83.41
2022-09-28T11:26:06.887Z,83.45
2022-09-28T11:28:41.367Z,83.46
2022-09-28T11:31:12.834Z,83.55
2022-09-28T11:33:47.756Z,83.59
2022-09-28T11:36:33.022Z,83.71
2022-09-28T11:39:12.249Z,83.75
2022-09-28T11:41:59.014Z,83.98
2022-09-28T11:44:46.390Z,84.19
2022-09-28T11:47:38.927Z,83.99
2022-09-28T11:50:23.871Z,84.36
2022-09-28T11:53:02.872Z,84.32
2022-09-28T11:55:39.819Z,84.51
2022-09-28T11:58:19.065Z,84.77
2022-09-28T12:00:55.995Z,84.51
2022-09-28T12:03:31.859Z,84.35
2022-09-28T12:06:06.592Z,84.54
2022-09-28T12:08:42.203Z,84.71
2022-09-28T12:11:18.870Z,84.72
2022-09-28T12:13:52.904Z,84.64
2022-09-28T12:16:53.432Z,84.30
2022-09-28T12:19:23.737Z,84.11
2022-09-28T12:22:01.745Z,84.24
2022-09-28T12:24:35.949Z,84.13
2022-09-28T12:27:12.752Z,84.00
2022-09-28T12:29:48.812Z,84.02
2022-09-28T12:32:29.711Z,83.99
2022-09-28T12:35:01.029Z,84.07
2022-09-28T12:37:45.483Z,84.14
2022-09-28T12:40:39.046Z,84.38
2022-09-28T12:43:44.003Z,84.70
2022-09-28T12:46:36.853Z,85.08
2022-09-28T12:50:33.298Z,85.34
2022-09-28T12:55:32.001Z,85.80
2022-09-28T12:58:15.693Z,85.92
2022-09-28T13:01:01.814Z,86.14
2022-09-28T13:04:00.954Z,85.94
2022-09-28T13:06:52.951Z,85.98
2022-09-28T13:09:27.138Z,85.90
2022-09-28T13:12:14.247Z,86.03
2022-09-28T13:15:10.024Z,86.17
2022-09-28T13:17:49.532Z,85.98
2022-09-28T13:20:31.460Z,86.19
2022-09-28T13:23:12.958Z,86.32
2022-09-28T13:25:51.160Z,86.02
2022-09-28T13:28:26.984Z,86.05
2022-09-28T13:33:38.694Z,85.98
2022-09-28T13:36:47.852Z,85.91
2022-09-28T13:39:38.636Z,85.07
2022-09-28T13:42:11.888Z,84.80
2022-09-28T13:44:59.498Z,85.00
2022-09-28T13:47:46.593Z,85.01
2022-09-28T13:50:28.776Z,83.93
2022-09-28T13:53:09.165Z,84.00
2022-09-28T13:55:54.870Z,83.66
2022-09-28T13:58:30.107Z,83.71
2022-09-28T14:01:04.955Z,83.92
2022-09-28T14:03:57.019Z,84.29
2022-09-28T14:06:30.732Z,83.78
2022-09-28T14:09:27.668Z,82.75
2022-09-28T14:12:01.643Z,82.54
2022-09-28T14:17:53.370Z,82.35
2022-09-28T14:20:28.302Z,82.33
2022-09-28T14:23:38.872Z,82.89
2022-09-28T14:26:39.625Z,83.36
2022-09-28T14:29:27.467Z,83.78
2022-09-28T14:32:04.750Z,83.89
2022-09-28T14:34:39.380Z,83.81
2022-09-28T14:37:40.544Z,83.87
2022-09-28T14:40:37.779Z,84.06
2022-09-28T14:43:38.484Z,84.20
2022-09-28T14:46:37.920Z,84.00
2022-09-28T14:49:49.017Z,84.47
2022-09-28T14:52:41.923Z,84.24
2022-09-28T14:55:19.042Z,84.20
2022-09-28T14:57:56.788Z,84.30
2022-09-28T15:00:31.947Z,84.31
2022-09-28T15:03:12.191Z,84.43
2022-09-28T15:05:48.255Z,84.41
2022-09-28T15:08:22.608Z,83.76
2022-09-28T15:10:54.959Z,82.65
2022-09-28T15:13:28.560Z,81.86
2022-09-28T15:16:06.539Z,80.51
2022-09-28T15:19:10.969Z,80.38
2022-09-28T15:21:45.451Z,79.60
2022-09-28T15:24:32.711Z,78.75
2022-09-28T15:27:19.082Z,77.47
2022-09-28T15:30:00.239Z,77.90
2022-09-28T15:32:32.317Z,78.28
2022-09-28T15:35:20.640Z,78.14
2022-09-28T15:37:52.666Z,77.85
2022-09-28T15:40:30.692Z,77.90
2022-09-28T15:43:02.510Z,78.30
2022-09-28T15:45:38.332Z,78.31
2022-09-28T15:48:31.068Z,78.24
2022-09-28T15:51:11.053Z,77.91
2022-09-28T15:53:52.671Z,77.84
2022-09-28T15:56:23.583Z,77.81
2022-09-28T15:59:11.040Z,78.13
2022-09-28T16:01:43.597Z,78.40
2022-09-28T16:04:48.063Z,78.74
2022-09-28T16:07:24.878Z,79.27
2022-09-28T16:10:00.969Z,79.65
2022-09-28T16:12:48.785Z,80.01
2022-09-28T16:15:25.056Z,80.49
2022-09-28T16:18:00.673Z,80.86
2022-09-28T16:20:34.206Z,81.21
2022-09-28T16:23:20.304Z,81.69
2022-09-28T16:25:53.854Z,81.92
2022-09-28T16:28:51.943Z,82.38
2022-09-28T16:31:34.839Z,82.81
2022-09-28T16:34:21.212Z,83.25
2022-09-28T16:36:52.667Z,83.62
2022-09-28T16:39:23.688Z,83.81
2022-09-28T16:42:01.837Z,84.17
2022-09-28T16:44:36.459Z,84.20
2022-09-28T16:47:09.031Z,84.48
2022-09-28T16:49:41.952Z,84.80
2022-09-28T16:52:34.709Z,84.63
2022-09-28T16:58:09.428Z,84.96
2022-09-28T17:00:42.855Z,85.08
2022-09-28T17:03:18.400Z,85.02
2022-09-28T17:05:49.920Z,84.96
2022-09-28T17:08:23.752Z,85.12
2022-09-28T17:13:48.740Z,85.21
2022-09-28T17:16:32.526Z,85.18
2022-09-28T17:19:19.050Z,85.23
2022-09-28T17:21:50.944Z,85.09
2022-09-28T17:24:22.306Z,84.94
2022-09-28T17:26:53.726Z,84.89
2022-09-28T17:29:24.776Z,84.91
2022-09-28T17:31:55.213Z,85.06
2022-09-28T17:34:26.200Z,84.92
2022-09-28T17:36:56.012Z,84.93
2022-09-28T17:39:27.327Z,84.84
2022-09-28T17:41:58.147Z,84.81
2022-09-28T17:44:28.991Z,84.76
2022-09-28T17:47:01.067Z,84.95
2022-09-28T17:49:32.223Z,85.19
2022-09-28T17:52:05.091Z,85.15
2022-09-28T17:54:36.131Z,85.37
2022-09-28T17:57:07.096Z,85.25
2022-09-28T17:59:38.070Z,85.28
2022-09-28T18:02:10.696Z,85.11
2022-09-28T18:04:51.903Z,85.09
2022-09-28T18:07:23.204Z,85.03
2022-09-28T18:09:58.237Z,84.92
2022-09-28T18:12:29.209Z,84.88
2022-09-28T18:14:58.795Z,84.74
2022-09-28T18:17:29.635Z,84.82
2022-09-28T18:20:00.569Z,84.61
2022-09-28T18:22:31.744Z,84.38
2022-09-28T18:25:01.427Z,84.38
2022-09-28T18:27:34.159Z,84.38
2022-09-28T18:30:06.303Z,84.31
2022-09-28T18:32:38.221Z,84.38
2022-09-28T18:35:12.099Z,84.40
2022-09-28T18:37:43.147Z,84.60
2022-09-28T18:40:15.368Z,84.52
2022-09-28T18:42:46.548Z,84.70
2022-09-28T18:45:18.673Z,84.75
2022-09-28T18:47:49.741Z,84.79
2022-09-28T18:50:20.812Z,84.79
2022-09-28T18:52:51.579Z,84.77
2022-09-28T18:55:22.588Z,84.79
2022-09-28T18:57:53.655Z,84.59
2022-09-28T19:00:25.240Z,84.54
2022-09-28T19:02:55.974Z,84.49
2022-09-28T19:05:28.737Z,84.36
2022-09-28T19:08:02.808Z,84.48
2022-09-28T19:10:33.814Z,84.65
2022-09-28T19:13:04.792Z,84.72
2022-09-28T19:15:36.252Z,84.79
2022-09-28T19:18:07.386Z,84.70
2022-09-28T19:20:36.918Z,84.77
2022-09-28T19:23:07.833Z,84.99
2022-09-28T19:25:40.336Z,85.38
2022-09-28T19:28:11.359Z,85.57
2022-09-28T19:30:42.185Z,85.71
2022-09-28T19:33:13.259Z,85.76
2022-09-28T19:35:44.248Z,85.84
2022-09-28T19:38:15.102Z,85.79
2022-09-28T19:40:46.689Z,85.54
2022-09-28T19:43:18.519Z,85.39
2022-09-28T19:45:52.396Z,85.10
2022-09-28T19:48:27.753Z,85.15
2022-09-28T19:50:59.660Z,85.56
2022-09-28T19:53:32.411Z,85.57
2022-09-28T19:56:05.180Z,85.60
2022-09-28T19:58:37.958Z,85.63
2022-09-28T20:01:09.737Z,85.39
2022-09-28T20:03:40.540Z,85.42
2022-09-28T20:06:17.082Z,85.65
2022-09-28T20:08:48.809Z,85.64
2022-09-28T20:11:23.516Z,85.68
2022-09-28T20:13:55.471Z,85.49
2022-09-28T20:16:27.168Z,85.44
2022-09-28T20:19:03.198Z,85.34
2022-09-28T20:21:35.230Z,85.29
2022-09-28T20:24:06.668Z,85.16
2022-09-28T20:26:37.987Z,85.17
2022-09-28T20:29:09.931Z,85.11
2022-09-28T20:31:42.011Z,85.23
2022-09-28T20:34:14.017Z,85.35
2022-09-28T20:36:44.727Z,85.36
2022-09-28T20:39:15.768Z,85.27
2022-09-28T20:41:48.346Z,85.29
2022-09-28T20:44:19.350Z,85.40
2022-09-28T20:46:53.351Z,85.50
2022-09-28T20:49:24.387Z,85.63
2022-09-28T20:51:55.353Z,85.72
2022-09-28T20:54:26.406Z,85.72
2022-09-28T20:56:57.498Z,85.74
2022-09-28T20:59:28.488Z,85.65
2022-09-28T21:01:57.772Z,85.76
2022-09-28T21:04:28.946Z,85.90
2022-09-28T21:06:59.813Z,86.07
2022-09-28T21:09:32.240Z,86.00
2022-09-28T21:12:03.635Z,86.01
2022-09-28T21:14:34.548Z,85.89
2022-09-28T21:17:05.741Z,85.72
2022-09-28T21:19:36.591Z,85.47
2022-09-28T21:22:07.678Z,85.42
2022-09-28T21:24:38.838Z,85.58
2022-09-28T21:27:11.667Z,85.72
2022-09-28T21:29:42.478Z,85.73
2022-09-28T21:32:13.316Z,85.75
2022-09-28T21:34:44.303Z,85.71
2022-09-28T21:37:15.080Z,85.79
2022-09-28T21:39:46.145Z,85.53
2022-09-28T21:42:16.820Z,85.40
2022-09-28T21:44:48.053Z,85.36
2022-09-28T21:47:19.022Z,85.30
2022-09-28T21:49:50.151Z,85.32
2022-09-28T21:52:21.007Z,85.50
2022-09-28T21:54:56.573Z,85.48
2022-09-28T21:57:27.410Z,85.50
2022-09-28T21:59:58.244Z,85.51
2022-09-28T22:02:30.757Z,85.70
2022-09-28T22:05:01.579Z,85.75
2022-09-28T22:07:32.646Z,85.68
2022-09-28T22:10:03.490Z,85.48
2022-09-28T22:12:34.515Z,85.66
2022-09-28T22:15:06.748Z,85.44
2022-09-28T22:17:37.644Z,85.47
2022-09-28T22:20:09.556Z,85.60
2022-09-28T22:22:40.749Z,85.68
2022-09-28T22:25:12.178Z,85.49
2022-09-28T22:27:43.338Z,85.58
2022-09-28T22:30:15.715Z,85.61
2022-09-28T22:32:47.054Z,85.47
2022-09-28T22:35:16.695Z,85.45
2022-09-28T22:37:49.064Z,85.53
2022-09-28T22:40:20.337Z,85.64
2022-09-28T22:42:51.369Z,85.78
2022-09-28T22:45:23.233Z,85.90
2022-09-28T22:47:53.964Z,85.80
2022-09-28T22:50:25.075Z,85.63
2022-09-28T22:52:56.787Z,85.45
2022-09-28T22:55:27.649Z,85.42
2022-09-28T22:57:57.375Z,85.23
2022-09-28T23:00:28.210Z,85.07
2022-09-28T23:02:59.182Z,85.12
2022-09-28T23:05:30.295Z,84.97
2022-09-28T23:08:03.286Z,84.87
2022-09-28T23:10:34.253Z,84.80
2022-09-28T23:13:05.189Z,84.98
2022-09-28T23:15:34.747Z,85.03
2022-09-28T23:18:06.118Z,84.97
2022-09-28T23:20:37.471Z,85.06
2022-09-28T23:23:08.309Z,85.11
2022-09-28T23:25:39.412Z,85.23
2022-09-28T23:28:10.416Z,85.25
2022-09-28T23:30:41.425Z,85.40
2022-09-28T23:33:14.848Z,85.56
2022-09-28T23:35:45.959Z,85.58
2022-09-28T23:38:18.859Z,85.61
2022-09-28T23:40:50.338Z,85.41
2022-09-28T23:43:21.191Z,85.37
2022-09-28T23:45:52.093Z,85.66
2022-09-28T23:48:23.091Z,85.63
2022-09-28T23:50:54.044Z,85.59
2022-09-28T23:53:25.367Z,85.68
2022-09-28T23:55:56.997Z,85.90
2022-09-28T23:58:28.303Z,85.79
